Evanston, IL

1:42 AM CDT on May 06, 2015 (GMT -0500)
North Evanston | | Change Station
CLOSE
Current Station
Personal Weather Station
Location: Evanston, IL
Elevation: 627 ft
Nearby Weather Stations
Active Advisory: Dense Fog Advisory Active Notice: Local Storm Report

Elev 627 ft 42.07 °N, 87.70 °W | Updated 11 minutes ago

Overcast
Overcast
45.1 °F
Feels Like 45 °F
N
0.0
Wind Variable Wind from NNE

Today
High -- | Low -- °F
--% Chance of Precip.
Yesterday
High -- | Low -- °F
Precip. -- in
5:40 AM 7:54 PM
Waning Gibbous, 95% visible
Pressure 30.23 in
Visibility 2.0 miles
Clouds Overcast 200 ft
Windchill 45 °F
Dew Point 45 °F
Humidity 99%
Rainfall 0.00 in
Snow Depth Not available.
UV 0 out of 12
Pollen .60 out of 12
Air Quality Not available.
Flu Activity Local Activity
SPECI KPWK 060634Z AUTO 03005KT 2SM BR OVC002 08/07 A3023 RMK AO2 T00780072

More Conditions Fewer Conditions

Pressure 30.23 in
Visibility 2.0 miles
Clouds Overcast 200 ft
Windchill 45 °F
Dew Point 45 °F
Humidity 99%
Rainfall 0.00 in
Snow Depth Not available.
UV 0 out of 12
Pollen .60 out of 12
Air Quality Not available.
Flu Activity Local Activity
SPECI KPWK 060634Z AUTO 03005KT 2SM BR OVC002 08/07 A3023 RMK AO2 T00780072

More Conditions Fewer Conditions

10-Day Weather Forecast

Almanac

Astronomy

May. 06, 2015 Rise Set
Actual Time
Civil Twilight
Nautical Twilight
Astronomical Twilight
Moon
Length of Visible Light
Length of Day
Tomorrow will be .
, % of the Moon is Illuminated

Today's Extremes

State Highs State Lows

Community

WunderPhotos

Upload Photos

1,818,850 photos uploaded!

WunderBlogs® & News

Nearby

Air Quality

  Air Quality AQ Index Pollutant
Not available.

Snow Depth

Station Depth Elevation

Earthquake Activity

City Distance Mag. Time & Date
Minimum magnitude displayed is 2.5.

Coastal Water Temperatures

Place Temperature

Stations

Nearby Weather Stations

Station Location Temp. Windchill Dew Point Humidity Wind Precip. Elev Updated Type
                   
Dense Fog Advisory
Statement as of 9:14 PM CDT on May 05, 2015

... Dense fog advisory remains in effect until 11 am CDT
Wednesday...

* visibility... a quarter mile or less... especially near Lake
Michigan. Dense fog may develop farther inland this evening.

* Impacts... very low visibilities will make travel hazardous.

Precautionary/preparedness actions...

A dense fog advisory means visibilities will frequently be
reduced to less than one quarter mile. If driving... slow down...
use your headlights... and leave plenty of distance ahead of you.



Beachler